Tipton, United Kingdom
Current Conditions -  °F | °C
As of 10:50 PM on Thursday 18 Dec 2014 (Local Time) from EGBB Reporting Station
Light Rain Light Rain  
Wind Chill: 13°   Ceiling: 2000
Heat Index: 13°   Visibility: 3mi
Dew Point: 10°   Wind: 10mph
Humidity: 82%   Direction: 210°SSW
Pressure: 29.71"   Gusts: NA
Location:  52.54°N, 2.04°W
Report Text: EGBB 182250Z AUTO 21009KT 180V250 5000 -RA BKN020/// OVC026/// 13/10 Q1006
Loading
Personal Weather Stations






























Interactive Weather Map New forecast layout! Learn more

10-Day Weather Forecast

Advertisements
Track Severe Weather on mobile